Time;durP1;ratioP1;P1;durP2;ratioP2;P2;SDS_P1;SDS_P2;PMS_P1;PMS_P2;Temp;Humidity;BMP_temperature;BMP_pressure;BME280_temperature;BME280_humidity;BME280_pressure;Samples;Min_cycle;Max_cycle;Signal;HPM_P1;HPM_P2
2024/01/21 00:00:46;;;;;;;66.25;7.03;;;;;;;1.90;100.00;101546.44;5073187;28;20028;-73
2024/01/21 00:03:11;;;;;;;54.40;7.82;;;;;;;1.93;100.00;101543.53;5073880;28;20101;-73
2024/01/21 00:05:37;;;;;;;56.63;6.70;;;;;;;1.96;100.00;101540.66;5073365;28;20069;-73
2024/01/21 00:08:02;;;;;;;61.88;6.68;;;;;;;1.98;100.00;101546.66;5074080;28;20506;-73
2024/01/21 00:10:28;;;;;;;53.78;7.13;;;;;;;1.98;100.00;101538.69;5073549;28;20484;-73
2024/01/21 00:12:54;;;;;;;57.38;7.20;;;;;;;1.76;100.00;101505.94;5072065;28;20029;-72
2024/01/21 00:15:22;;;;;;;62.78;7.85;;;;;;;1.98;100.00;101551.97;5055766;28;20029;-73
2024/01/21 00:17:47;;;;;;;70.95;8.20;;;;;;;1.95;100.00;101542.44;5073437;28;20484;-73
2024/01/21 00:20:14;;;;;;;57.83;6.50;;;;;;;1.98;100.00;101536.03;5055190;28;20044;-72
2024/01/21 00:22:40;;;;;;;61.85;7.43;;;;;;;1.97;100.00;101539.66;5038071;28;20032;-73
2024/01/21 00:25:09;;;;;;;55.95;6.85;;;;;;;1.99;100.00;101548.34;5073318;28;20480;-72
2024/01/21 00:27:35;;;;;;;57.97;7.28;;;;;;;1.97;100.00;101537.00;5071340;28;20067;-73
2024/01/21 00:30:00;;;;;;;53.22;6.57;;;;;;;1.97;100.00;101531.72;5071898;28;20448;-72
2024/01/21 00:32:28;;;;;;;65.20;7.82;;;;;;;1.82;100.00;101509.91;5072106;28;20123;-73
2024/01/21 00:34:54;;;;;;;68.90;7.55;;;;;;;1.97;100.00;101526.41;5072580;28;20131;-72
2024/01/21 00:37:19;;;;;;;60.80;7.13;;;;;;;1.96;100.00;101533.53;5071395;28;20116;-72
2024/01/21 00:39:44;;;;;;;58.30;7.85;;;;;;;1.96;100.00;101524.72;5054202;28;20550;-72
2024/01/21 00:42:11;;;;;;;53.75;7.30;;;;;;;1.86;100.00;101506.88;5071776;28;20048;-72
2024/01/21 00:44:37;;;;;;;65.97;7.72;;;;;;;1.97;100.00;101529.06;5071822;28;20552;-72
2024/01/21 00:47:03;;;;;;;57.65;8.13;;;;;;;1.96;100.00;101530.03;5072287;28;20115;-73
2024/01/21 00:49:29;;;;;;;78.15;9.02;;;;;;;1.94;100.00;101527.47;5071607;28;20054;-73
2024/01/21 00:51:55;;;;;;;66.25;8.90;;;;;;;1.96;100.00;101541.47;5071590;28;20448;-73
2024/01/21 00:54:21;;;;;;;81.55;8.82;;;;;;;1.87;100.00;101529.78;5072768;28;20139;-72
2024/01/21 00:56:46;;;;;;;67.70;8.63;;;;;;;1.96;100.00;101535.34;5072622;28;20031;-73
2024/01/21 00:59:12;;;;;;;63.97;9.18;;;;;;;1.92;100.00;101536.53;5071185;28;20036;-71
2024/01/21 01:01:38;;;;;;;64.97;9.07;;;;;;;1.82;100.00;101521.38;5071070;28;20448;-72
2024/01/21 01:04:07;;;;;;;75.32;8.60;;;;;;;1.87;100.00;101537.75;5055169;28;20476;-72
2024/01/21 01:06:33;;;;;;;60.13;9.10;;;;;;;1.94;100.00;101535.44;5071174;28;20024;-72
2024/01/21 01:08:59;;;;;;;65.78;9.55;;;;;;;1.85;100.00;101531.75;5072834;28;20439;-71
2024/01/21 01:11:25;;;;;;;65.65;9.98;;;;;;;1.96;100.00;101536.19;5071817;28;20024;-72
2024/01/21 01:13:51;;;;;;;62.85;10.15;;;;;;;1.94;100.00;101546.06;5071717;28;20032;-71
2024/01/21 01:16:16;;;;;;;64.97;9.48;;;;;;;1.96;100.00;101544.13;5069844;28;20021;-72
2024/01/21 01:18:42;;;;;;;58.22;8.73;;;;;;;1.80;100.00;101523.31;5072993;28;20036;-72
2024/01/21 01:21:10;;;;;;;76.80;9.95;;;;;;;1.97;100.00;101539.66;5070537;28;20033;-72
2024/01/21 01:23:35;;;;;;;57.72;9.45;;;;;;;1.97;100.00;101539.66;5071958;28;20074;-72
2024/01/21 01:26:01;;;;;;;73.50;11.13;;;;;;;1.96;100.00;101544.13;5071855;28;20784;-72
2024/01/21 01:28:26;;;;;;;52.88;10.15;;;;;;;1.94;100.00;101539.91;5054378;28;20039;-72
2024/01/21 01:30:51;;;;;;;64.18;11.10;;;;;;;1.95;100.00;101537.13;5054089;28;20028;-72
2024/01/21 01:33:17;;;;;;;60.70;10.80;;;;;;;1.96;100.00;101544.13;5059992;28;20036;-72
2024/01/21 01:35:43;;;;;;;58.15;10.82;;;;;;;1.99;100.00;101549.19;5055507;28;20106;-72
2024/01/21 01:38:12;;;;;;;68.13;10.05;;;;;;;2.00;100.00;101550.03;5072660;28;20052;-72
2024/01/21 01:40:38;;;;;;;68.88;11.25;;;;;;;1.99;100.00;101541.25;5054694;28;20035;-72
2024/01/21 01:43:03;;;;;;;47.58;10.77;;;;;;;1.87;100.00;101529.78;5071054;28;20025;-71
2024/01/21 01:45:29;;;;;;;60.92;10.27;;;;;;;2.00;100.00;101540.25;5054820;28;20037;-72
2024/01/21 01:47:56;;;;;;;68.18;10.88;;;;;;;2.02;100.00;101542.78;5070811;28;20036;-72
2024/01/21 01:50:21;;;;;;;47.38;10.65;;;;;;;2.03;100.00;101541.81;5053838;28;20028;-72
2024/01/21 01:52:47;;;;;;;60.42;12.32;;;;;;;1.99;100.00;101545.72;5070941;28;20074;-71
2024/01/21 01:55:14;;;;;;;74.00;12.65;;;;;;;1.99;100.00;101548.34;5072209;28;20500;-70
2024/01/21 01:57:39;;;;;;;66.88;12.70;;;;;;;1.88;100.00;101526.16;5071193;28;20048;-71
2024/01/21 02:00:06;;;;;;;64.28;12.85;;;;;;;1.97;100.00;101540.50;5054142;28;20064;-72
2024/01/21 02:02:33;;;;;;;60.10;13.48;;;;;;;1.96;100.00;101538.81;5054374;28;20029;-72
2024/01/21 02:05:03;;;;;;;61.28;13.85;;;;;;;1.97;100.00;101535.19;5070458;28;20111;-72
2024/01/21 02:07:28;;;;;;;64.88;14.35;;;;;;;1.97;100.00;101539.66;5070126;28;20115;-72
2024/01/21 02:09:54;;;;;;;65.70;14.20;;;;;;;1.92;100.00;101524.13;5070240;28;20120;-72
2024/01/21 02:12:19;;;;;;;62.83;13.65;;;;;;;1.77;100.00;101502.31;5053140;28;20049;-72
2024/01/21 02:14:44;;;;;;;57.47;13.98;;;;;;;1.94;100.00;101534.59;5076901;28;20538;-71
2024/01/21 02:17:10;;;;;;;54.78;14.35;;;;;;;1.92;100.00;101525.91;5076906;28;20490;-71
2024/01/21 02:19:35;;;;;;;49.63;14.05;;;;;;;1.91;100.00;101534.84;5053869;28;20081;-72
2024/01/21 02:22:00;;;;;;;64.25;14.55;;;;;;;1.88;100.00;101526.16;5070071;28;20116;-72
2024/01/21 02:24:30;;;;;;;52.38;13.00;;;;;;;1.86;100.00;101517.50;5072091;28;20534;-72
2024/01/21 02:26:56;;;;;;;58.50;15.75;;;;;;;1.88;100.00;101510.25;5071203;28;20541;-72
2024/01/21 02:29:21;;;;;;;47.30;14.35;;;;;;;1.61;100.00;101470.03;5074657;28;20036;-72
2024/01/21 02:31:47;;;;;;;51.22;13.60;;;;;;;1.85;100.00;101513.16;5074817;28;20037;-72
2024/01/21 02:34:12;;;;;;;41.10;13.70;;;;;;;1.84;100.00;101505.31;5074916;28;20040;-72
2024/01/21 02:36:38;;;;;;;51.25;14.13;;;;;;;1.78;100.00;101498.69;5058121;28;20047;-72
2024/01/21 02:39:03;;;;;;;60.05;15.18;;;;;;;1.84;100.00;101513.28;5074522;28;20051;-72
2024/01/21 02:41:29;;;;;;;51.53;15.10;;;;;;;1.82;100.00;101517.84;5074142;28;20032;-73
2024/01/21 02:43:54;;;;;;;47.95;13.68;;;;;;;1.68;100.00;101491.63;5057678;28;20028;-71
2024/01/21 02:46:20;;;;;;;47.72;14.23;;;;;;;1.82;100.00;101516.06;5056383;28;20519;-72
2024/01/21 02:48:45;;;;;;;56.10;14.80;;;;;;;1.83;100.00;101522.22;5074062;28;20035;-72
2024/01/21 02:51:14;;;;;;;57.00;15.52;;;;;;;1.81;100.00;101519.66;5057337;28;20086;-72
2024/01/21 02:53:40;;;;;;;47.05;14.27;;;;;;;1.81;100.00;101524.16;5075012;28;20032;-71
2024/01/21 02:56:06;;;;;;;48.30;15.63;;;;;;;1.80;100.00;101519.81;5077618;28;20051;-72
2024/01/21 02:58:32;;;;;;;61.38;15.88;;;;;;;1.79;100.00;101521.63;5080698;28;20060;-71
2024/01/21 03:00:57;;;;;;;53.78;16.63;;;;;;;1.78;100.00;101519.91;5074923;28;20028;-71
2024/01/21 03:03:22;;;;;;;54.38;16.42;;;;;;;1.76;100.00;101519.22;5074225;28;20059;-72
2024/01/21 03:05:50;;;;;;;55.13;16.55;;;;;;;1.78;100.00;101524.38;5073669;28;20036;-72
2024/01/21 03:08:15;;;;;;;50.65;16.45;;;;;;;1.69;100.00;101496.81;5073601;28;20032;-71
2024/01/21 03:10:41;;;;;;;58.30;16.92;;;;;;;1.68;100.00;101484.50;5075326;28;20039;-72
2024/01/21 03:13:09;;;;;;;57.10;16.92;;;;;;;1.65;100.00;101480.28;5073622;28;20029;-72
2024/01/21 03:15:34;;;;;;;51.83;15.85;;;;;;;1.78;100.00;101492.53;5074598;28;20061;-72
2024/01/21 03:17:59;;;;;;;63.22;17.15;;;;;;;1.78;100.00;101487.25;5056846;28;20021;-72
2024/01/21 03:20:25;;;;;;;58.22;17.45;;;;;;;1.76;100.00;101483.88;5072940;28;20025;-72
2024/01/21 03:22:50;;;;;;;72.43;18.00;;;;;;;1.75;100.00;101476.88;5075450;28;20116;-72
2024/01/21 03:25:16;;;;;;;57.63;16.40;;;;;;;1.76;100.00;101475.94;5055987;28;20479;-72
2024/01/21 03:27:41;;;;;;;63.38;17.15;;;;;;;1.76;100.00;101473.28;5057239;28;20111;-72
2024/01/21 03:30:07;;;;;;;54.80;16.35;;;;;;;1.73;100.00;101471.72;5073544;28;20444;-72
2024/01/21 03:32:32;;;;;;;67.38;18.75;;;;;;;1.73;100.00;101474.38;5074397;28;20031;-72
2024/01/21 03:34:58;;;;;;;68.45;18.65;;;;;;;1.49;100.00;101440.06;5073653;28;20144;-72
2024/01/21 03:37:23;;;;;;;64.18;19.30;;;;;;;1.73;100.00;101479.66;5075249;28;20471;-72
2024/01/21 03:39:51;;;;;;;71.43;20.15;;;;;;;1.71;100.00;101468.31;5075510;28;20110;-72
2024/01/21 03:42:16;;;;;;;74.25;21.85;;;;;;;1.73;100.00;101473.53;5048600;28;20036;-72
2024/01/21 03:44:43;;;;;;;74.93;21.23;;;;;;;1.71;100.00;101473.63;5057090;28;20408;-73
2024/01/21 03:47:08;;;;;;;79.43;20.95;;;;;;;1.70;100.00;101464.00;5056170;28;20376;-72
2024/01/21 03:49:34;;;;;;;82.47;21.33;;;;;;;1.67;100.00;101472.22;5073956;28;20038;-71
2024/01/21 03:51:59;;;;;;;86.82;22.67;;;;;;;1.68;100.00;101467.75;5039107;28;20025;-72
2024/01/21 03:54:24;;;;;;;80.63;21.73;;;;;;;1.65;100.00;101471.47;5072606;28;20127;-72
2024/01/21 03:56:50;;;;;;;94.80;23.33;;;;;;;1.61;100.00;101468.22;5056266;28;20123;-71
2024/01/21 03:59:15;;;;;;;87.63;21.45;;;;;;;1.60;100.00;101473.69;5073699;28;20475;-71
2024/01/21 04:01:46;;;;;;;82.78;24.63;;;;;;;1.57;100.00;101461.50;5054712;28;20067;-71
2024/01/21 04:04:12;;;;;;;85.78;22.00;;;;;;;1.56;100.00;101467.78;5072073;28;20052;-72
2024/01/21 04:06:42;;;;;;;100.13;22.95;;;;;;;1.54;100.00;101459.09;5073216;28;20024;-71
2024/01/21 04:09:09;;;;;;;87.65;22.75;;;;;;;1.51;100.00;101458.50;5074072;28;20020;-71
2024/01/21 04:11:34;;;;;;;78.25;22.08;;;;;;;1.48;100.00;101459.59;5072936;28;20039;-72
2024/01/21 04:13:59;;;;;;;96.05;23.55;;;;;;;1.42;100.00;101460.06;5055791;28;20111;-72
2024/01/21 04:16:25;;;;;;;87.93;23.67;;;;;;;1.35;100.00;101457.06;5072192;28;20348;-71
2024/01/21 04:18:50;;;;;;;94.85;24.08;;;;;;;1.11;100.00;101435.19;5072291;28;20036;-71
2024/01/21 04:21:15;;;;;;;96.70;24.80;;;;;;;1.23;100.00;101455.44;5073162;28;20071;-71
2024/01/21 04:23:41;;;;;;;95.22;24.30;;;;;;;1.23;100.00;101454.59;5073455;28;20040;-71
2024/01/21 04:26:07;;;;;;;86.57;22.00;;;;;;;1.22;100.00;101437.81;5072711;28;20037;-71
2024/01/21 04:28:32;;;;;;;85.35;23.77;;;;;;;1.20;100.00;101453.03;5073084;28;20107;-71
2024/01/21 04:30:58;;;;;;;95.45;25.98;;;;;;;1.15;100.00;101441.94;5072679;28;20066;-71
2024/01/21 04:33:23;;;;;;;85.20;23.95;;;;;;;1.01;100.00;101421.81;5055125;28;20444;-72
2024/01/21 04:35:49;;;;;;;88.63;24.27;;;;;;;1.05;100.00;101431.22;5054952;28;20508;-71
2024/01/21 04:38:15;;;;;;;89.30;25.00;;;;;;;1.03;100.00;101437.63;5054994;28;20040;-72
2024/01/21 04:40:40;;;;;;;97.18;26.10;;;;;;;0.99;100.00;101431.69;5055291;28;20040;-71
2024/01/21 04:43:06;;;;;;;100.68;26.30;;;;;;;0.99;100.00;101426.38;5054998;28;20028;-71
2024/01/21 04:45:31;;;;;;;92.03;25.85;;;;;;;0.68;100.00;101386.44;5054975;28;20066;-71
2024/01/21 04:47:57;;;;;;;100.10;26.65;;;;;;;0.95;100.00;101424.97;5072042;28;20033;-72
2024/01/21 04:50:22;;;;;;;100.45;26.13;;;;;;;0.94;100.00;101423.28;5071282;28;20028;-72
2024/01/21 04:52:47;;;;;;;112.68;26.98;;;;;;;0.96;100.00;101421.38;5054857;28;20117;-71
2024/01/21 04:55:13;;;;;;;91.75;24.90;;;;;;;0.94;100.00;101416.16;5071151;28;20096;-71
2024/01/21 04:57:39;;;;;;;78.53;21.38;;;;;;;0.97;100.00;101419.56;5071066;28;20463;-71
2024/01/21 05:00:05;;;;;;;93.18;24.65;;;;;;;0.94;100.00;101415.34;5072206;28;20119;-71
2024/01/21 05:02:31;;;;;;;99.78;26.77;;;;;;;0.87;100.00;101411.50;5070734;28;20037;-71
2024/01/21 05:04:57;;;;;;;100.60;27.33;;;;;;;0.88;100.00;101418.47;5070244;28;20070;-71
2024/01/21 05:07:22;;;;;;;102.82;27.52;;;;;;;0.85;100.00;101416.91;5070255;28;20085;-71
2024/01/21 05:09:48;;;;;;;110.00;28.52;;;;;;;0.84;100.00;101417.03;5070979;28;20039;-71
2024/01/21 05:12:13;;;;;;;96.22;25.73;;;;;;;0.83;100.00;101410.03;5072079;28;20079;-71
2024/01/21 05:14:38;;;;;;;99.07;27.05;;;;;;;0.63;100.00;101382.44;5072060;28;20032;-71
2024/01/21 05:17:04;;;;;;;87.95;25.20;;;;;;;0.82;100.00;101419.78;5072247;28;20099;-73
2024/01/21 05:19:29;;;;;;;96.95;27.42;;;;;;;0.82;100.00;101416.28;5054731;28;20551;-71
2024/01/21 05:21:54;;;;;;;86.50;21.65;;;;;;;0.79;100.00;101405.94;5072200;28;20040;-71
2024/01/21 05:24:20;;;;;;;86.78;24.42;;;;;;;0.80;100.00;101399.69;5072297;28;20040;-71
2024/01/21 05:26:46;;;;;;;102.65;27.00;;;;;;;0.64;100.00;101384.16;5072148;28;20033;-71
2024/01/21 05:29:12;;;;;;;90.32;26.20;;;;;;;0.79;100.00;101406.78;5072546;28;20032;-71
2024/01/21 05:31:38;;;;;;;86.20;26.27;;;;;;;0.79;100.00;101409.41;5072424;28;20035;-71
2024/01/21 05:34:03;;;;;;;84.93;27.45;;;;;;;0.68;100.00;101380.31;5054515;28;20028;-72
2024/01/21 05:36:28;;;;;;;97.03;27.92;;;;;;;0.69;100.00;101395.22;5070984;28;20507;-72
2024/01/21 05:38:54;;;;;;;96.72;25.42;;;;;;;0.76;100.00;101400.88;5054319;28;20050;-71
2024/01/21 05:41:19;;;;;;;95.78;26.70;;;;;;;0.73;100.00;101401.97;5054047;28;20507;-72
2024/01/21 05:43:45;;;;;;;100.78;27.67;;;;;;;0.66;100.00;101395.47;5071133;28;20017;-72
2024/01/21 05:46:10;;;;;;;84.00;25.70;;;;;;;0.67;100.00;101391.88;5070660;28;20036;-71
2024/01/21 05:48:36;;;;;;;95.72;26.33;;;;;;;0.66;100.00;101385.72;5071118;28;20807;-72
2024/01/21 05:51:01;;;;;;;87.90;24.55;;;;;;;0.64;100.00;101373.56;5072110;28;20468;-71
2024/01/21 05:53:27;;;;;;;85.80;25.45;;;;;;;0.68;100.00;101380.31;5070476;28;20059;-72
2024/01/21 05:55:53;;;;;;;81.18;25.13;;;;;;;0.69;100.00;101377.50;5070501;28;20032;-72
2024/01/21 05:58:18;;;;;;;100.53;25.98;;;;;;;0.69;100.00;101376.69;5072088;28;20028;-71
2024/01/21 06:00:44;;;;;;;78.20;26.20;;;;;;;0.72;100.00;101371.16;5070130;28;20115;-72
2024/01/21 06:03:09;;;;;;;76.43;25.42;;;;;;;0.75;100.00;101376.19;5071034;28;20117;-72
2024/01/21 06:05:35;;;;;;;73.10;23.23;;;;;;;0.64;100.00;101352.38;5070184;28;20035;-71
2024/01/21 06:08:00;;;;;;;69.80;23.98;;;;;;;0.76;100.00;101354.03;5070301;28;20043;-72
2024/01/21 06:10:25;;;;;;;79.93;24.58;;;;;;;0.76;100.00;101358.50;5069728;28;21119;-71
2024/01/21 06:12:53;;;;;;;63.80;21.58;;;;;;;0.77;100.00;101354.91;5053212;28;20032;-72
2024/01/21 06:15:18;;;;;;;70.32;24.08;;;;;;;0.76;100.00;101338.13;5070650;28;20086;-72
2024/01/21 06:17:44;;;;;;;77.60;24.02;;;;;;;0.75;100.00;101349.72;5071034;28;20040;-71
2024/01/21 06:20:09;;;;;;;76.82;24.83;;;;;;;0.75;100.00;101348.88;5053890;28;20503;-72
2024/01/21 06:22:37;;;;;;;71.82;24.10;;;;;;;0.74;100.00;101339.25;5072281;28;20047;-72
2024/01/21 06:25:03;;;;;;;69.72;24.58;;;;;;;0.74;100.00;101336.59;5071776;28;20090;-71
2024/01/21 06:27:29;;;;;;;72.70;24.02;;;;;;;0.74;100.00;101331.31;5071229;28;20025;-72
2024/01/21 06:29:54;;;;;;;69.30;22.80;;;;;;;0.74;100.00;101320.72;5054522;28;20033;-71
2024/01/21 06:32:20;;;;;;;60.50;21.38;;;;;;;0.67;100.00;101315.06;5072139;28;20036;-71
2024/01/21 06:34:45;;;;;;;58.60;20.88;;;;;;;0.68;100.00;101316.72;5071008;28;20049;-71
2024/01/21 06:37:10;;;;;;;61.47;18.70;;;;;;;0.72;100.00;101307.56;5037262;28;20390;-71
2024/01/21 06:39:36;;;;;;;61.05;21.85;;;;;;;0.70;100.00;101314.81;5054165;28;20082;-71
2024/01/21 06:42:01;;;;;;;60.25;19.88;;;;;;;0.59;100.00;101301.56;5070736;28;20028;-71
2024/01/21 06:44:27;;;;;;;57.50;19.50;;;;;;;0.67;100.00;101305.31;5053418;28;20039;-71
2024/01/21 06:46:52;;;;;;;54.10;20.08;;;;;;;0.51;100.00;101294.25;5053165;28;20037;-71
2024/01/21 06:49:17;;;;;;;55.10;19.45;;;;;;;0.68;100.00;101322.03;5053082;28;20029;-72
2024/01/21 06:51:46;;;;;;;44.15;17.98;;;;;;;0.43;100.00;101284.28;5070291;28;20487;-71
2024/01/21 06:54:15;;;;;;;52.63;18.95;;;;;;;0.63;100.00;101293.28;5071289;28;20036;-72
2024/01/21 06:56:41;;;;;;;39.80;16.63;;;;;;;0.65;100.00;101301.09;5070060;28;20036;-72
2024/01/21 06:59:06;;;;;;;42.42;16.35;;;;;;;0.64;100.00;101294.13;5069391;28;20054;-71
2024/01/21 07:01:31;;;;;;;47.22;16.42;;;;;;;0.44;100.00;101267.41;5069549;28;20039;-71
2024/01/21 07:03:57;;;;;;;38.40;14.57;;;;;;;0.61;100.00;101286.41;5070734;28;20034;-71
2024/01/21 07:06:22;;;;;;;40.92;14.75;;;;;;;0.62;100.00;101285.44;5069745;28;20398;-71
2024/01/21 07:08:47;;;;;;;39.63;14.90;;;;;;;0.20;100.00;101200.56;5069647;28;20505;-71
2024/01/21 07:11:13;;;;;;;39.60;14.70;;;;;;;0.53;100.00;101262.34;5053284;28;20615;-72
2024/01/21 07:13:40;;;;;;;36.92;12.52;;;;;;;0.53;100.00;101263.22;5070539;28;20028;-73
2024/01/21 07:16:05;;;;;;;38.45;16.05;;;;;;;0.37;100.00;101239.75;5058048;28;20033;-72
2024/01/21 07:18:31;;;;;;;32.97;13.00;;;;;;;0.56;100.00;101262.09;5053025;28;20086;-72
2024/01/21 07:20:56;;;;;;;34.22;13.05;;;;;;;0.55;100.00;101252.47;5070321;28;20059;-72
2024/01/21 07:23:22;;;;;;;31.52;13.05;;;;;;;0.52;100.00;101245.63;5070329;28;20041;-72
2024/01/21 07:25:48;;;;;;;34.90;13.80;;;;;;;0.39;100.00;101218.44;5070520;28;20040;-72
2024/01/21 07:28:15;;;;;;;31.25;12.88;;;;;;;0.50;100.00;101238.75;5054980;28;20376;-71
2024/01/21 07:30:41;;;;;;;37.30;12.98;;;;;;;0.49;100.00;101229.13;5053223;28;20057;-72
2024/01/21 07:33:07;;;;;;;35.22;12.60;;;;;;;0.27;100.00;101193.81;5062543;28;20420;-69
2024/01/21 07:35:32;;;;;;;31.60;11.85;;;;;;;0.44;100.00;101218.94;5058965;28;20134;-69
2024/01/21 07:37:58;;;;;;;33.97;13.50;;;;;;;0.44;100.00;101218.94;5076126;28;20021;-70
2024/01/21 07:40:23;;;;;;;34.63;12.27;;;;;;;0.44;100.00;101209.16;5075949;28;20475;-69
2024/01/21 07:42:49;;;;;;;34.45;11.80;;;;;;;0.46;100.00;101206.38;5062553;28;20025;-69
2024/01/21 07:45:14;;;;;;;34.35;11.75;;;;;;;0.46;100.00;101193.16;5079189;28;20043;-69
2024/01/21 07:47:40;;;;;;;34.97;11.38;;;;;;;0.43;100.00;101194.25;5061852;28;20049;-69
2024/01/21 07:50:06;;;;;;;30.38;10.60;;;;;;;0.40;100.00;101191.03;5076862;28;20029;-69
2024/01/21 07:52:31;;;;;;;29.30;11.13;;;;;;;0.48;100.00;101191.22;5058766;28;20044;-69
2024/01/21 07:54:57;;;;;;;31.73;11.63;;;;;;;0.49;100.00;101192.91;5072928;28;20033;-69
2024/01/21 07:57:22;;;;;;;31.42;10.25;;;;;;;0.48;100.00;101191.22;5072929;28;20033;-69
2024/01/21 07:59:48;;;;;;;25.67;10.18;;;;;;;0.52;100.00;101187.38;5056357;28;20025;-69
2024/01/21 08:02:13;;;;;;;30.83;10.45;;;;;;;0.55;100.00;101184.47;5055298;28;20029;-70
2024/01/21 08:04:38;;;;;;;29.88;9.40;;;;;;;0.40;100.00;101157.44;5071687;28;20021;-69
2024/01/21 08:07:04;;;;;;;19.80;8.70;;;;;;;0.57;100.00;101173.78;5071160;28;20112;-68
2024/01/21 08:09:29;;;;;;;28.35;9.35;;;;;;;0.59;100.00;101171.81;5071458;28;20032;-69
2024/01/21 08:11:55;;;;;;;30.60;8.60;;;;;;;0.62;100.00;101166.28;5072273;28;20487;-69
2024/01/21 08:14:20;;;;;;;19.67;7.32;;;;;;;0.57;100.00;101147.28;5054473;28;20041;-68
2024/01/21 08:16:46;;;;;;;24.17;9.05;;;;;;;0.63;100.00;101155.56;5071084;28;20071;-69
2024/01/21 08:19:11;;;;;;;30.63;8.52;;;;;;;0.66;100.00;101144.72;5055461;28;20033;-69
2024/01/21 08:21:37;;;;;;;22.17;7.38;;;;;;;0.67;100.00;101140.25;5072007;28;20032;-70
2024/01/21 08:24:03;;;;;;;22.13;8.32;;;;;;;0.67;100.00;101127.84;5053666;28;20510;-71
2024/01/21 08:26:30;;;;;;;18.85;6.60;;;;;;;0.71;100.00;101120.50;5052970;28;20494;-72
2024/01/21 08:28:55;;;;;;;19.13;6.57;;;;;;;0.73;100.00;101121.22;5069318;28;20127;-72
2024/01/21 08:31:21;;;;;;;22.13;6.85;;;;;;;0.76;100.00;101117.44;5051874;28;20532;-72
2024/01/21 08:33:46;;;;;;;17.17;6.57;;;;;;;0.79;100.00;101120.69;5052018;28;20639;-72
2024/01/21 08:36:12;;;;;;;15.30;6.00;;;;;;;0.55;100.00;101062.66;5068161;28;20415;-71
2024/01/21 08:38:38;;;;;;;19.23;6.07;;;;;;;0.86;100.00;101107.75;5052774;28;20078;-72
2024/01/21 08:41:04;;;;;;;19.88;7.00;;;;;;;0.88;100.00;101101.38;5052805;28;20102;-72
2024/01/21 08:43:30;;;;;;;20.05;6.15;;;;;;;0.94;100.00;101100.03;5051794;28;20531;-72
2024/01/21 08:45:55;;;;;;;19.52;6.07;;;;;;;0.97;100.00;101098.94;5067236;28;20017;-71
2024/01/21 08:48:20;;;;;;;16.40;6.15;;;;;;;1.01;100.00;101093.25;5053168;28;20028;-71
2024/01/21 08:50:46;;;;;;;22.08;6.78;;;;;;;1.02;100.00;101072.88;5069098;28;20395;-72
2024/01/21 08:53:11;;;;;;;16.02;5.78;;;;;;;1.06;100.00;101069.84;5051786;28;20313;-72
2024/01/21 08:55:37;;;;;;;17.52;6.00;;;;;;;1.10;100.00;101073.91;5067988;28;20509;-72
2024/01/21 08:58:02;;;;;;;15.10;5.85;;;;;;;1.10;100.00;101067.78;5035012;28;20037;-72
2024/01/21 09:00:28;;;;;;;19.92;6.72;;;;;;;1.09;100.00;101050.19;5067457;28;20036;-72
2024/01/21 09:02:54;;;;;;;14.57;6.25;;;;;;;1.13;100.00;101051.63;5053086;28;20068;-74
2024/01/21 09:05:19;;;;;;;16.05;5.60;;;;;;;0.99;100.00;101028.94;5051805;28;20049;-71
2024/01/21 09:07:45;;;;;;;17.73;6.18;;;;;;;1.17;100.00;101051.22;5052854;28;20478;-71
2024/01/21 09:10:10;;;;;;;14.00;5.63;;;;;;;1.20;100.00;101042.16;5068235;28;20078;-72
2024/01/21 09:12:35;;;;;;;13.45;6.30;;;;;;;1.14;100.00;101037.38;5034128;28;20088;-71
2024/01/21 09:15:02;;;;;;;19.70;5.93;;;;;;;1.25;100.00;101031.16;5052433;28;20064;-72
2024/01/21 09:17:27;;;;;;;15.10;5.50;;;;;;;1.23;100.00;100990.69;5051842;28;20024;-72
2024/01/21 09:19:53;;;;;;;18.08;6.35;;;;;;;1.29;100.00;100998.09;5068388;28;20041;-72
2024/01/21 09:22:18;;;;;;;15.43;5.65;;;;;;;1.34;100.00;100996.72;5053486;28;20025;-72
2024/01/21 09:24:43;;;;;;;18.58;5.53;;;;;;;1.35;100.00;100979.84;5060474;28;20078;-71
2024/01/21 09:27:09;;;;;;;17.17;5.95;;;;;;;1.37;100.00;100999.09;5056070;28;20506;-72
2024/01/21 09:29:34;;;;;;;17.27;4.95;;;;;;;1.38;100.00;100990.16;5067242;28;20031;-72
2024/01/21 09:32:00;;;;;;;20.80;6.07;;;;;;;1.40;100.00;100980.28;5050850;28;20044;-72
2024/01/21 09:34:25;;;;;;;13.98;5.20;;;;;;;1.39;100.00;100978.59;5051859;28;20506;-72
2024/01/21 09:36:51;;;;;;;18.23;5.22;;;;;;;1.28;100.00;100968.09;5050937;28;20071;-72
2024/01/21 09:39:18;;;;;;;16.40;5.30;;;;;;;1.45;100.00;100974.56;5067155;28;20028;-72
2024/01/21 09:41:51;;;;;;;14.15;5.60;;;;;;;1.49;100.00;100977.78;5052221;28;20111;-73
2024/01/21 09:44:25;;;;;;;21.08;6.32;;;;;;;1.29;100.00;100953.88;5066752;28;20554;-73
2024/01/21 09:46:52;;;;;;;18.95;5.95;;;;;;;1.50;100.00;100984.78;5050435;28;20120;-73
2024/01/21 09:49:18;;;;;;;12.45;4.97;;;;;;;1.51;100.00;100976.66;5051338;28;20028;-73
2024/01/21 09:51:49;;;;;;;16.73;4.75;;;;;;;1.52;100.00;100973.03;5050674;28;20061;-72
2024/01/21 09:54:14;;;;;;;11.02;4.30;;;;;;;1.45;100.00;100944.56;5050547;28;20098;-71
2024/01/21 09:56:40;;;;;;;16.17;4.88;;;;;;;1.26;100.00;100914.41;5050443;28;20530;-73
2024/01/21 09:59:08;;;;;;;19.00;6.47;;;;;;;1.51;100.00;100947.50;5067030;28;20033;-72
2024/01/21 10:01:36;;;;;;;17.83;6.25;;;;;;;1.43;100.00;100925.31;5051678;28;20100;-74
2024/01/21 10:04:02;;;;;;;14.60;4.90;;;;;;;1.47;100.00;100921.41;5067537;28;20036;-73
2024/01/21 10:06:28;;;;;;;13.32;4.50;;;;;;;1.44;100.00;100911.91;5053986;28;20029;-72
2024/01/21 10:08:53;;;;;;;12.05;3.70;;;;;;;1.47;100.00;100905.50;5056326;28;20052;-73
2024/01/21 10:11:18;;;;;;;11.88;3.72;;;;;;;1.51;100.00;100901.59;5050728;28;20029;-72
2024/01/21 10:13:47;;;;;;;14.40;4.05;;;;;;;1.55;100.00;100909.13;5052033;28;20043;-74
2024/01/21 10:16:12;;;;;;;15.75;4.00;;;;;;;1.63;100.00;100901.31;5052111;28;20104;-74
2024/01/21 10:18:38;;;;;;;12.20;3.53;;;;;;;1.55;100.00;100881.75;5066881;28;20063;-72
2024/01/21 10:21:05;;;;;;;8.77;3.08;;;;;;;1.78;100.00;100912.34;5052212;28;20029;-73
2024/01/21 10:23:32;;;;;;;17.40;3.45;;;;;;;1.69;100.00;100894.63;5067141;28;20032;-73
2024/01/21 10:25:58;;;;;;;12.40;2.78;;;;;;;1.85;100.00;100894.03;5068901;28;20025;-71
2024/01/21 10:28:27;;;;;;;15.55;2.88;;;;;;;1.91;100.00;100890.00;5052084;28;20068;-72
2024/01/21 10:30:53;;;;;;;14.35;3.83;;;;;;;1.97;100.00;100879.66;5050676;28;20041;-72
2024/01/21 10:33:18;;;;;;;10.13;2.72;;;;;;;1.98;100.00;100865.41;5066691;28;20525;-71
2024/01/21 10:35:44;;;;;;;15.50;3.47;;;;;;;2.00;100.00;100859.97;5033008;28;20049;-70
2024/01/21 10:38:13;;;;;;;18.23;2.92;;;;;;;2.08;100.00;100862.75;5066584;28;20410;-71
2024/01/21 10:40:46;;;;;;;13.05;2.95;;;;;;;2.12;100.00;100858.84;5051252;28;20083;-70
2024/01/21 10:43:14;;;;;;;12.93;3.25;;;;;;;1.98;100.00;100830.06;5049971;28;20083;-71
2024/01/21 10:45:45;;;;;;;18.35;3.10;;;;;;;2.13;100.00;100844.56;5049814;28;20079;-71
2024/01/21 10:48:15;;;;;;;13.77;2.65;;;;;;;2.16;100.00;100846.94;5053101;28;20040;-71
2024/01/21 10:50:42;;;;;;;12.05;3.05;;;;;;;2.15;100.00;100847.91;5079236;28;20048;-71
2024/01/21 10:53:10;;;;;;;10.13;2.83;;;;;;;2.02;100.00;100815.53;5071321;28;20047;-71
2024/01/21 10:55:38;;;;;;;14.27;2.97;;;;;;;2.19;100.00;100822.78;5054790;28;20029;-71
2024/01/21 10:58:05;;;;;;;13.70;2.75;;;;;;;2.28;100.00;100810.44;5054897;28;20086;-71
2024/01/21 11:00:30;;;;;;;12.32;2.40;;;;;;;2.30;100.00;100801.34;5070171;28;20029;-69
2024/01/21 11:03:25;;;;;;;19.92;4.07;;;;;;;2.29;100.00;100807.66;5070114;28;20111;-71
2024/01/21 11:05:53;;;;;;;13.80;2.95;;;;;;;2.27;100.00;100820.22;5055091;28;20124;-72